createdAt,value
2023-09-12T00:00:53.284Z,100699.30
2023-09-12T00:03:22.102Z,100700.11
2023-09-12T00:05:58.258Z,100701.17
2023-09-12T00:08:26.531Z,100701.66
2023-09-12T00:11:04.125Z,100702.14
2023-09-12T00:13:32.676Z,100705.82
2023-09-12T00:16:00.540Z,100704.71
2023-09-12T00:18:28.346Z,100708.06
2023-09-12T00:20:56.531Z,100710.95
2023-09-12T00:23:24.988Z,100708.77
2023-09-12T00:25:55.362Z,100706.36
2023-09-12T00:28:23.086Z,100709.25
2023-09-12T00:30:51.092Z,100707.35
2023-09-12T00:33:18.803Z,100705.09
2023-09-12T00:35:48.171Z,100704.91
2023-09-12T00:38:17.784Z,100702.40
2023-09-12T00:40:45.441Z,100702.76
2023-09-12T00:43:13.102Z,100700.52
2023-09-12T00:45:41.360Z,100702.79
2023-09-12T00:48:10.375Z,100701.88
2023-09-12T00:50:38.098Z,100700.70
2023-09-12T00:53:05.695Z,100707.12
2023-09-12T00:55:35.502Z,100706.21
2023-09-12T00:58:03.772Z,100703.80
2023-09-12T01:00:31.658Z,100707.21
2023-09-12T01:02:59.426Z,100708.70
2023-09-12T01:05:28.104Z,100707.35
2023-09-12T01:07:58.390Z,100711.40
2023-09-12T01:10:25.871Z,100712.39
2023-09-12T01:12:53.743Z,100711.89
2023-09-12T01:15:21.760Z,100710.92
2023-09-12T01:17:49.555Z,100707.50
2023-09-12T01:20:26.063Z,100708.00
2023-09-12T01:23:05.799Z,100707.80
2023-09-12T01:25:43.269Z,100709.85
2023-09-12T01:28:11.130Z,100711.09
2023-09-12T01:30:39.960Z,100704.97
2023-09-12T01:33:07.825Z,100702.30
2023-09-12T01:35:36.025Z,100704.35
2023-09-12T01:38:05.648Z,100700.72
2023-09-12T01:40:51.337Z,100703.60
2023-09-12T01:43:22.270Z,100703.80
2023-09-12T01:45:55.209Z,100704.52
2023-09-12T01:48:25.405Z,100703.52
2023-09-12T01:50:53.235Z,100702.52
2023-09-12T01:53:20.897Z,100705.20
2023-09-12T01:55:48.605Z,100706.98
2023-09-12T01:58:16.266Z,100708.75
2023-09-12T02:00:43.942Z,100706.29
2023-09-12T02:03:11.720Z,100710.86
2023-09-12T02:05:39.479Z,100708.64
2023-09-12T02:08:07.097Z,100706.73
2023-09-12T02:10:36.303Z,100703.40
2023-09-12T02:13:03.980Z,100704.10
2023-09-12T02:15:32.465Z,100703.14
2023-09-12T02:18:00.310Z,100705.80
2023-09-12T02:20:28.037Z,100701.95
2023-09-12T02:22:56.850Z,100699.39
2023-09-12T02:25:24.343Z,100700.90
2023-09-12T02:27:52.028Z,100703.28
2023-09-12T02:30:19.657Z,100705.52
2023-09-12T02:32:47.231Z,100706.33
2023-09-12T02:35:14.976Z,100707.83
2023-09-12T02:37:42.723Z,100703.68
2023-09-12T02:40:13.155Z,100702.86
2023-09-12T02:42:41.689Z,100705.29
2023-09-12T02:45:10.383Z,100703.58
2023-09-12T02:47:38.091Z,100703.63
2023-09-12T02:50:06.132Z,100708.67
2023-09-12T02:52:33.761Z,100708.73
2023-09-12T02:55:01.383Z,100708.10
2023-09-12T02:57:28.984Z,100712.29
2023-09-12T02:59:56.541Z,100707.58
2023-09-12T03:02:24.208Z,100711.38
2023-09-12T03:04:52.084Z,100711.63
2023-09-12T03:07:19.696Z,100708.31
2023-09-12T03:09:51.092Z,100711.64
2023-09-12T03:12:18.648Z,100709.98
2023-09-12T03:14:46.276Z,100711.48
2023-09-12T03:17:13.873Z,100712.61
2023-09-12T03:19:41.613Z,100713.11
2023-09-12T03:22:09.245Z,100716.11
2023-09-12T03:24:36.880Z,100715.90
2023-09-12T03:27:05.333Z,100720.77
2023-09-12T03:29:34.542Z,100719.42
2023-09-12T03:32:02.259Z,100716.27
2023-09-12T03:34:30.563Z,100714.77
2023-09-12T03:36:58.187Z,100716.74
2023-09-12T03:39:25.708Z,100717.05
2023-09-12T03:41:53.303Z,100720.39
2023-09-12T03:44:21.070Z,100721.18
2023-09-12T03:46:48.749Z,100717.16
2023-09-12T03:49:18.496Z,100718.13
2023-09-12T03:51:46.321Z,100718.88
2023-09-12T03:54:14.934Z,100718.14
2023-09-12T03:56:44.490Z,100722.63
2023-09-12T03:59:15.008Z,100723.13
2023-09-12T04:01:42.718Z,100725.60
2023-09-12T04:04:10.948Z,100726.24
2023-09-12T04:06:39.855Z,100730.48
2023-09-12T04:09:08.031Z,100733.30
2023-09-12T04:11:46.366Z,100733.67
2023-09-12T04:14:15.713Z,100734.27
2023-09-12T04:16:43.549Z,100734.25
2023-09-12T04:19:11.298Z,100734.65
2023-09-12T04:21:39.421Z,100734.53
2023-09-12T04:24:08.072Z,100738.38
2023-09-12T04:26:35.713Z,100738.04
2023-09-12T04:29:03.744Z,100742.36
2023-09-12T04:31:31.827Z,100741.75
2023-09-12T04:33:59.720Z,100740.22
2023-09-12T04:36:27.392Z,100737.38
2023-09-12T04:38:54.989Z,100740.45
2023-09-12T04:41:23.831Z,100740.30
2023-09-12T04:43:51.587Z,100740.77
2023-09-12T04:46:19.173Z,100740.33
2023-09-12T04:48:47.124Z,100741.44
2023-09-12T04:51:14.916Z,100737.70
2023-09-12T04:53:42.473Z,100741.67
2023-09-12T04:56:11.361Z,100747.52
2023-09-12T04:58:39.703Z,100744.95
2023-09-12T05:01:07.305Z,100744.54
2023-09-12T05:03:34.966Z,100745.82
2023-09-12T05:06:02.848Z,100747.02
2023-09-12T05:08:31.081Z,100747.88
2023-09-12T05:10:58.884Z,100745.14
2023-09-12T05:13:29.399Z,100745.11
2023-09-12T05:15:58.020Z,100744.00
2023-09-12T05:18:26.334Z,100745.92
2023-09-12T05:20:54.069Z,100744.52
2023-09-12T05:23:21.641Z,100740.83
2023-09-12T05:25:49.212Z,100743.20
2023-09-12T05:28:17.396Z,100744.42
2023-09-12T05:30:49.622Z,100739.73
2023-09-12T05:33:19.460Z,100740.92
2023-09-12T05:35:48.493Z,100739.41
2023-09-12T05:38:16.205Z,100742.09
2023-09-12T05:40:44.361Z,100743.88
2023-09-12T05:43:12.024Z,100742.14
2023-09-12T05:45:39.905Z,100744.33
2023-09-12T05:48:07.745Z,100740.95
2023-09-12T05:50:37.782Z,100746.71
2023-09-12T05:53:06.416Z,100752.30
2023-09-12T05:55:34.048Z,100748.85
2023-09-12T05:58:01.726Z,100753.02
2023-09-12T06:00:29.900Z,100747.95
2023-09-12T06:02:57.758Z,100749.94
2023-09-12T06:05:25.983Z,100747.60
2023-09-12T06:07:54.900Z,100743.94
2023-09-12T06:10:22.914Z,100747.48
2023-09-12T06:12:51.064Z,100747.70
2023-09-12T06:15:19.089Z,100747.95
2023-09-12T06:17:49.329Z,100746.29
2023-09-12T06:20:17.137Z,100747.27
2023-09-12T06:22:44.929Z,100746.01
2023-09-12T06:25:17.019Z,100745.45
2023-09-12T06:27:44.636Z,100747.69
2023-09-12T06:30:13.166Z,100744.20
2023-09-12T06:32:40.994Z,100744.71
2023-09-12T06:35:10.002Z,100750.20
2023-09-12T06:37:39.462Z,100748.39
2023-09-12T06:40:08.668Z,100751.98
2023-09-12T06:42:36.276Z,100751.64
2023-09-12T06:45:03.997Z,100750.22
2023-09-12T06:47:31.654Z,100753.14
2023-09-12T06:49:59.180Z,100752.63
2023-09-12T06:52:26.772Z,100750.59
2023-09-12T06:54:54.340Z,100750.39
2023-09-12T06:57:22.003Z,100747.75
2023-09-12T06:59:50.614Z,100744.47
2023-09-12T07:02:19.911Z,100747.20
2023-09-12T07:04:47.700Z,100748.86
2023-09-12T07:07:15.282Z,100746.01
2023-09-12T07:09:42.927Z,100744.16
2023-09-12T07:12:11.098Z,100747.88
2023-09-12T07:14:40.179Z,100747.66
2023-09-12T07:17:08.040Z,100744.02
2023-09-12T07:19:35.610Z,100743.15
2023-09-12T07:22:03.152Z,100746.86
2023-09-12T07:24:30.908Z,100745.30
2023-09-12T07:27:01.079Z,100746.94
2023-09-12T07:29:29.070Z,100750.85
2023-09-12T07:31:58.443Z,100751.16
2023-09-12T07:34:29.233Z,100751.52
2023-09-12T07:36:57.135Z,100750.64
2023-09-12T07:39:26.516Z,100748.29
2023-09-12T07:41:54.212Z,100747.56
2023-09-12T07:44:22.332Z,100746.78
2023-09-12T07:46:50.103Z,100752.11
2023-09-12T07:49:17.712Z,100748.91
2023-09-12T07:51:45.321Z,100752.14
2023-09-12T07:54:12.919Z,100750.05
2023-09-12T07:56:40.525Z,100750.01
2023-09-12T07:59:12.277Z,100754.62
2023-09-12T08:01:40.135Z,100752.20
2023-09-12T08:04:07.821Z,100753.48
2023-09-12T08:06:47.809Z,100757.39
2023-09-12T08:09:23.465Z,100752.21
2023-09-12T08:11:51.179Z,100755.41
2023-09-12T08:14:21.637Z,100754.41
2023-09-12T08:16:49.194Z,100755.59
2023-09-12T08:19:19.433Z,100750.33
2023-09-12T08:21:47.529Z,100750.35
2023-09-12T08:24:15.055Z,100750.52
2023-09-12T08:26:43.943Z,100751.92
2023-09-12T08:29:12.078Z,100752.50
2023-09-12T08:31:39.718Z,100753.94
2023-09-12T08:34:09.234Z,100753.05
2023-09-12T08:36:37.486Z,100750.44
2023-09-12T08:39:09.465Z,100751.14
2023-09-12T08:41:37.235Z,100747.95
2023-09-12T08:44:07.142Z,100748.92
2023-09-12T08:46:34.761Z,100748.37
2023-09-12T08:49:02.351Z,100741.72
2023-09-12T08:51:29.995Z,100744.27
2023-09-12T08:53:57.560Z,100744.93
2023-09-12T08:56:26.103Z,100743.69
2023-09-12T08:58:53.674Z,100742.92
2023-09-12T09:01:22.748Z,100744.36
2023-09-12T09:03:50.348Z,100741.27
2023-09-12T09:06:21.736Z,100739.11
2023-09-12T09:08:52.223Z,100740.80
2023-09-12T09:11:19.784Z,100740.06
2023-09-12T09:13:48.480Z,100739.88
2023-09-12T09:16:22.930Z,100741.67
2023-09-12T09:18:54.485Z,100745.34
2023-09-12T09:21:27.282Z,100743.99
2023-09-12T09:23:55.754Z,100744.25
2023-09-12T09:26:23.605Z,100741.09
2023-09-12T09:29:10.874Z,100739.66
2023-09-12T09:31:43.190Z,100742.20
2023-09-12T09:34:18.319Z,100736.69
2023-09-12T09:36:53.080Z,100729.79
2023-09-12T09:39:22.454Z,100733.85
2023-09-12T09:41:51.301Z,100734.23
2023-09-12T09:44:18.926Z,100732.65
2023-09-12T09:46:47.336Z,100730.05
2023-09-12T09:49:22.157Z,100728.71
2023-09-12T09:51:49.781Z,100726.67
2023-09-12T09:54:17.405Z,100725.14
2023-09-12T09:56:54.555Z,100725.02
2023-09-12T09:59:23.549Z,100724.83
2023-09-12T10:01:52.710Z,100719.95
2023-09-12T10:04:20.653Z,100720.22
2023-09-12T10:06:48.359Z,100725.16
2023-09-12T10:09:16.329Z,100723.48
2023-09-12T10:11:45.223Z,100719.80
2023-09-12T10:14:13.109Z,100721.14
2023-09-12T10:16:46.201Z,100719.18
2023-09-12T10:19:28.469Z,100721.20
2023-09-12T10:33:36.063Z,100710.58
2023-09-12T10:36:13.012Z,100709.21
2023-09-12T10:38:45.587Z,100711.52
2023-09-12T10:41:14.950Z,100710.94
2023-09-12T10:43:44.218Z,100710.56
2023-09-12T10:46:12.076Z,100708.29
2023-09-12T10:48:41.953Z,100706.65
2023-09-12T10:51:09.811Z,100707.14
2023-09-12T10:53:37.997Z,100704.65
2023-09-12T10:56:08.761Z,100703.17
2023-09-12T10:59:09.298Z,100702.27
2023-09-12T11:01:38.008Z,100703.60
2023-09-12T11:17:41.513Z,100685.41
2023-09-12T11:20:12.581Z,100682.58
2023-09-12T11:22:44.607Z,100685.16
2023-09-12T11:25:26.924Z,100680.24
2023-09-12T11:27:57.592Z,100681.88
2023-09-12T11:30:32.264Z,100681.61
2023-09-12T11:33:01.251Z,100681.23
2023-09-12T11:35:30.216Z,100675.85
2023-09-12T11:37:59.503Z,100675.95
2023-09-12T11:40:34.494Z,100676.09
2023-09-12T11:43:05.222Z,100671.72
2023-09-12T11:45:33.105Z,100671.42
2023-09-12T11:48:00.833Z,100672.23
2023-09-12T11:50:32.396Z,100669.06
2023-09-12T11:53:07.695Z,100669.84
2023-09-12T11:55:37.627Z,100669.45
2023-09-12T11:58:05.870Z,100666.54
2023-09-12T12:00:33.986Z,100664.90
2023-09-12T12:03:01.735Z,100666.08
2023-09-12T12:05:30.067Z,100661.59
2023-09-12T12:08:16.314Z,100661.86
2023-09-12T12:10:45.536Z,100659.48
2023-09-12T12:13:16.866Z,100658.20
2023-09-12T12:15:44.808Z,100656.20
2023-09-12T12:18:12.952Z,100654.52
2023-09-12T12:20:41.329Z,100658.80
2023-09-12T12:23:09.057Z,100657.44
2023-09-12T12:25:36.933Z,100655.86
2023-09-12T12:28:05.323Z,100649.66
2023-09-12T12:30:39.035Z,100648.82
2023-09-12T12:34:07.515Z,100644.26
2023-09-12T12:36:05.488Z,100640.45
2023-09-12T12:38:48.954Z,100638.86
2023-09-12T12:41:37.778Z,100638.52
2023-09-12T12:44:13.187Z,100635.27
2023-09-12T12:46:56.232Z,100634.40
2023-09-12T12:49:24.690Z,100630.55
2023-09-12T12:51:52.336Z,100629.54
2023-09-12T12:54:23.361Z,100627.34
2023-09-12T12:56:51.373Z,100626.73
2023-09-12T12:59:18.985Z,100623.51
2023-09-12T13:01:46.899Z,100622.94
2023-09-12T13:04:14.569Z,100620.67
2023-09-12T13:06:43.858Z,100619.00
2023-09-12T13:09:12.803Z,100618.71
2023-09-12T13:11:40.665Z,100624.80
2023-09-12T13:14:11.362Z,100622.65
2023-09-12T13:16:42.055Z,100622.17
2023-09-12T13:19:12.526Z,100622.33
2023-09-12T13:21:40.403Z,100620.61
2023-09-12T13:24:08.354Z,100616.30
2023-09-12T13:26:35.919Z,100616.97
2023-09-12T13:29:03.930Z,100613.61
2023-09-12T13:31:33.094Z,100611.66
2023-09-12T13:34:01.289Z,100616.56
2023-09-12T13:36:31.073Z,100614.35
2023-09-12T13:38:58.703Z,100606.75
2023-09-12T13:41:27.735Z,100606.77
2023-09-12T13:43:55.533Z,100604.27
2023-09-12T13:46:23.253Z,100603.44
2023-09-12T13:48:51.120Z,100605.92
2023-09-12T13:51:18.687Z,100603.38
2023-09-12T13:53:46.685Z,100600.01
2023-09-12T13:56:14.547Z,100598.02
2023-09-12T13:58:44.456Z,100596.60
2023-09-12T14:01:26.518Z,100594.15
2023-09-12T14:03:59.213Z,100593.05
2023-09-12T14:06:28.941Z,100592.86
2023-09-12T14:08:57.512Z,100591.61
2023-09-12T14:11:32.870Z,100593.41
2023-09-12T14:16:36.927Z,100592.84
2023-09-12T14:19:05.037Z,100594.41
2023-09-12T14:21:33.136Z,100594.58
2023-09-12T14:24:01.929Z,100595.40
2023-09-12T14:26:30.305Z,100599.52
2023-09-12T14:28:58.256Z,100600.43
2023-09-12T14:31:26.639Z,100602.33
2023-09-12T14:33:54.478Z,100600.48
2023-09-12T14:36:22.167Z,100601.95
2023-09-12T14:38:50.185Z,100598.16
2023-09-12T14:41:17.836Z,100596.75
2023-09-12T14:43:45.729Z,100597.99
2023-09-12T14:46:13.824Z,100598.27
2023-09-12T14:48:51.753Z,100595.45
2023-09-12T14:51:31.825Z,100598.91
2023-09-12T14:54:02.411Z,100593.62
2023-09-12T14:56:30.974Z,100594.65
2023-09-12T14:58:58.678Z,100595.95
2023-09-12T15:01:26.477Z,100594.36
2023-09-12T15:03:54.826Z,100590.58
2023-09-12T15:06:24.490Z,100592.48
2023-09-12T15:08:52.189Z,100597.36
2023-09-12T15:11:19.925Z,100593.46
2023-09-12T15:13:48.608Z,100592.43
2023-09-12T15:16:17.031Z,100594.03
2023-09-12T15:18:44.864Z,100595.84
2023-09-12T15:21:12.428Z,100594.50
2023-09-12T15:23:39.971Z,100592.61
2023-09-12T15:26:07.607Z,100593.73
2023-09-12T15:28:35.433Z,100594.59
2023-09-12T15:31:04.843Z,100598.13
2023-09-12T15:33:34.274Z,100601.73
2023-09-12T15:36:02.145Z,100604.04
2023-09-12T15:38:31.200Z,100606.80
2023-09-12T15:40:59.871Z,100607.77
2023-09-12T15:43:28.253Z,100607.67
2023-09-12T15:45:56.002Z,100607.76
2023-09-12T15:48:24.274Z,100605.70
2023-09-12T15:50:52.419Z,100607.24
2023-09-12T15:53:20.043Z,100608.89
2023-09-12T15:55:49.953Z,100606.81
2023-09-12T15:58:17.564Z,100607.77
2023-09-12T16:00:45.252Z,100606.95
2023-09-12T16:03:13.245Z,100610.48
2023-09-12T16:05:40.982Z,100611.23
2023-09-12T16:08:09.152Z,100612.56
2023-09-12T16:10:37.079Z,100608.39
2023-09-12T16:13:05.237Z,100611.55
2023-09-12T16:15:34.670Z,100605.69
2023-09-12T16:18:02.652Z,100606.54
2023-09-12T16:20:30.891Z,100610.22
2023-09-12T16:22:58.533Z,100613.05
2023-09-12T16:25:26.164Z,100612.76
2023-09-12T16:27:54.024Z,100616.77
2023-09-12T16:30:21.697Z,100614.46
2023-09-12T16:32:49.342Z,100617.67
2023-09-12T16:35:17.168Z,100625.09
2023-09-12T16:37:45.250Z,100627.02
2023-09-12T16:40:12.871Z,100627.07
2023-09-12T16:42:40.469Z,100629.77
2023-09-12T16:45:09.700Z,100631.39
2023-09-12T16:47:37.362Z,100627.58
2023-09-12T16:50:05.416Z,100630.16
2023-09-12T16:52:33.054Z,100636.73
2023-09-12T16:55:00.668Z,100635.00
2023-09-12T16:57:28.531Z,100646.35
2023-09-12T16:59:56.203Z,100645.61
2023-09-12T17:02:25.389Z,100644.20
2023-09-12T17:04:53.323Z,100649.52
2023-09-12T17:07:21.181Z,100652.66
2023-09-12T17:09:51.582Z,100652.05
2023-09-12T17:12:19.194Z,100653.21
2023-09-12T17:14:46.710Z,100657.22
2023-09-12T17:17:14.315Z,100660.74
2023-09-12T17:19:41.921Z,100658.93
2023-09-12T17:22:09.384Z,100661.45
2023-09-12T17:24:37.170Z,100667.59
2023-09-12T17:27:04.966Z,100671.49
2023-09-12T17:29:32.597Z,100674.45
2023-09-12T17:32:09.222Z,100672.46
2023-09-12T17:34:43.848Z,100668.20
2023-09-12T17:37:11.876Z,100674.63
2023-09-12T17:39:40.038Z,100673.41
2023-09-12T17:42:07.884Z,100683.41
2023-09-12T17:44:35.848Z,100684.86
2023-09-12T17:47:03.923Z,100687.27
2023-09-12T17:49:34.627Z,100687.91
2023-09-12T17:52:02.978Z,100683.94
2023-09-12T17:54:30.559Z,100687.16
2023-09-12T17:56:59.471Z,100688.48
2023-09-12T17:59:28.182Z,100690.45
2023-09-12T18:01:55.924Z,100695.15
2023-09-12T18:04:25.681Z,100697.00
2023-09-12T18:06:54.482Z,100695.54
2023-09-12T18:09:22.209Z,100695.10
2023-09-12T18:11:49.944Z,100697.50
2023-09-12T18:14:17.644Z,100698.08
2023-09-12T18:16:45.421Z,100700.13
2023-09-12T18:19:13.363Z,100696.66
2023-09-12T18:21:41.104Z,100698.25
2023-09-12T18:24:08.699Z,100696.48
2023-09-12T18:26:36.262Z,100694.59
2023-09-12T18:29:04.060Z,100691.45
2023-09-12T18:31:31.666Z,100695.09
2023-09-12T18:33:59.387Z,100699.27
2023-09-12T18:36:29.768Z,100698.44
2023-09-12T18:38:57.334Z,100698.09
2023-09-12T18:41:24.957Z,100697.10
2023-09-12T18:43:53.214Z,100696.08
2023-09-12T18:46:21.111Z,100693.87
2023-09-12T18:48:48.856Z,100694.80
2023-09-12T18:51:16.506Z,100692.24
2023-09-12T18:53:44.382Z,100689.78
2023-09-12T18:56:12.209Z,100693.25
2023-09-12T18:58:40.472Z,100698.70
2023-09-12T19:01:09.430Z,100697.36
2023-09-12T19:03:37.457Z,100700.30
2023-09-12T19:06:05.857Z,100699.98
2023-09-12T19:08:33.546Z,100703.51
2023-09-12T19:11:01.164Z,100702.64
2023-09-12T19:13:28.917Z,100699.29
2023-09-12T19:15:56.680Z,100705.19
2023-09-12T19:18:24.281Z,100702.73
2023-09-12T19:20:51.898Z,100703.13
2023-09-12T19:23:20.089Z,100707.97
2023-09-12T19:25:49.450Z,100708.39
2023-09-12T19:28:18.266Z,100711.40
2023-09-12T19:30:46.246Z,100713.11
2023-09-12T19:33:15.027Z,100710.55
2023-09-12T19:35:43.337Z,100715.64
2023-09-12T19:38:11.022Z,100712.81
2023-09-12T19:40:39.973Z,100709.52
2023-09-12T19:43:07.731Z,100709.09
2023-09-12T19:45:36.310Z,100710.95
2023-09-12T19:48:06.697Z,100711.95
2023-09-12T19:50:35.497Z,100713.66
2023-09-12T19:53:03.090Z,100714.41
2023-09-12T19:55:30.672Z,100714.61
2023-09-12T19:57:58.541Z,100716.96
2023-09-12T20:00:26.090Z,100716.46
2023-09-12T20:02:53.835Z,100719.98
2023-09-12T20:05:24.404Z,100722.83
2023-09-12T20:07:52.457Z,100722.31
2023-09-12T20:10:22.101Z,100725.46
2023-09-12T20:12:52.221Z,100725.17
2023-09-12T20:15:21.799Z,100729.88
2023-09-12T20:17:52.965Z,100729.13
2023-09-12T20:20:23.225Z,100732.62
2023-09-12T20:22:51.244Z,100729.96
2023-09-12T20:25:20.680Z,100729.97
2023-09-12T20:27:49.876Z,100731.61
2023-09-12T20:30:17.540Z,100731.04
2023-09-12T20:32:57.682Z,100732.68
2023-09-12T20:35:30.839Z,100733.30
2023-09-12T20:37:59.285Z,100730.06
2023-09-12T20:40:27.908Z,100726.52
2023-09-12T20:42:56.319Z,100731.08
2023-09-12T20:45:23.978Z,100730.67
2023-09-12T20:47:52.931Z,100731.05
2023-09-12T20:50:27.040Z,100733.15
2023-09-12T20:52:59.861Z,100729.05
2023-09-12T20:55:28.771Z,100724.73
2023-09-12T20:57:58.226Z,100727.02
2023-09-12T21:00:28.866Z,100731.08
2023-09-12T21:02:56.593Z,100731.54
2023-09-12T21:05:24.968Z,100734.26
2023-09-12T21:07:52.571Z,100731.87
2023-09-12T21:10:20.151Z,100731.61
2023-09-12T21:12:47.757Z,100734.02
2023-09-12T21:15:15.612Z,100733.11
2023-09-12T21:17:43.294Z,100735.80
2023-09-12T21:20:11.216Z,100731.72
2023-09-12T21:22:38.764Z,100735.18
2023-09-12T21:25:06.820Z,100736.20
2023-09-12T21:27:34.466Z,100733.45
2023-09-12T21:30:04.869Z,100736.41
2023-09-12T21:32:33.794Z,100735.86
2023-09-12T21:35:12.236Z,100737.64
2023-09-12T21:37:42.029Z,100736.27
2023-09-12T21:40:11.852Z,100734.48
2023-09-12T21:42:40.932Z,100734.21
2023-09-12T21:45:13.325Z,100730.41
2023-09-12T21:47:41.279Z,100729.80
2023-09-12T21:50:09.342Z,100729.94
2023-09-12T21:52:38.110Z,100735.38
2023-09-12T21:55:06.123Z,100731.33
2023-09-12T21:57:35.082Z,100732.73
2023-09-12T22:00:14.121Z,100732.67
2023-09-12T22:02:41.792Z,100731.87
2023-09-12T22:05:09.721Z,100729.02
2023-09-12T22:07:37.606Z,100734.51
2023-09-12T22:10:05.798Z,100734.09
2023-09-12T22:12:33.448Z,100729.86
2023-09-12T22:15:01.060Z,100734.77
2023-09-12T22:17:28.605Z,100731.38
2023-09-12T22:19:57.510Z,100735.09
2023-09-12T22:22:25.135Z,100736.84
2023-09-12T22:24:54.134Z,100738.38
2023-09-12T22:27:22.213Z,100737.70
2023-09-12T22:29:49.924Z,100734.67
2023-09-12T22:32:17.491Z,100737.73
2023-09-12T22:34:46.585Z,100736.46
2023-09-12T22:37:14.131Z,100735.44
2023-09-12T22:39:46.203Z,100736.02
2023-09-12T22:42:13.800Z,100738.37
2023-09-12T22:44:41.821Z,100738.52
2023-09-12T22:47:09.384Z,100742.70
2023-09-12T22:49:36.921Z,100739.34
2023-09-12T22:52:04.854Z,100740.80
2023-09-12T22:54:32.492Z,100742.33
2023-09-12T22:57:00.077Z,100742.94
2023-09-12T22:59:30.848Z,100745.70
2023-09-12T23:02:00.106Z,100742.80
2023-09-12T23:04:28.173Z,100742.88
2023-09-12T23:06:57.613Z,100741.17
2023-09-12T23:09:25.274Z,100739.38
2023-09-12T23:11:53.767Z,100737.15
2023-09-12T23:14:21.828Z,100737.96
2023-09-12T23:16:49.439Z,100741.77
2023-09-12T23:19:17.128Z,100736.36
2023-09-12T23:21:44.744Z,100736.80
2023-09-12T23:24:12.276Z,100738.02
2023-09-12T23:26:39.819Z,100738.75
2023-09-12T23:29:07.367Z,100734.91
2023-09-12T23:31:34.975Z,100740.16
2023-09-12T23:34:03.343Z,100737.60
2023-09-12T23:36:30.922Z,100740.23
2023-09-12T23:38:58.459Z,100738.92
2023-09-12T23:41:26.013Z,100736.06
2023-09-12T23:43:56.206Z,100732.55
2023-09-12T23:46:23.769Z,100733.36
2023-09-12T23:48:51.379Z,100729.82
2023-09-12T23:51:18.951Z,100729.02
2023-09-12T23:53:46.643Z,100727.64
2023-09-12T23:56:14.237Z,100728.44
2023-09-12T23:58:41.746Z,100725.63
